Time;durP1;ratioP1;P1;durP2;ratioP2;P2;SDS_P1;SDS_P2;PMS_P1;PMS_P2;Temp;Humidity;BMP_temperature;BMP_pressure;BME280_temperature;BME280_humidity;BME280_pressure;Samples;Min_cycle;Max_cycle;Signal;HPM_P1;HPM_P2
2022/03/22 00:00:40;;;;;;;21.52;12.05;;;;;;;-139.48;100.00;61774.03;4995366;28;20106;-71
2022/03/22 00:03:25;;;;;;;17.98;11.52;;;;;;;-139.48;100.00;61774.03;4994158;28;20088;-71
2022/03/22 00:06:09;;;;;;;19.00;11.43;;;;;;;-139.48;100.00;61774.03;4994381;28;20049;-70
2022/03/22 00:08:53;;;;;;;17.73;11.13;;;;;;;-139.48;100.00;61774.03;4994040;28;20069;-70
2022/03/22 00:11:37;;;;;;;19.95;11.98;;;;;;;-139.48;100.00;61774.03;4993645;28;20093;-70
2022/03/22 00:14:20;;;;;;;18.52;11.07;;;;;;;-139.48;100.00;61774.03;4993950;28;20052;-70
2022/03/22 00:17:05;;;;;;;19.05;10.80;;;;;;;-139.48;100.00;61774.03;4994190;28;20112;-70
2022/03/22 00:19:48;;;;;;;18.33;10.77;;;;;;;-139.48;100.00;61774.03;4993714;28;20477;-70
2022/03/22 00:22:33;;;;;;;19.88;11.57;;;;;;;-139.48;100.00;61774.03;4994970;28;20481;-70
2022/03/22 00:25:17;;;;;;;21.88;11.73;;;;;;;-139.48;100.00;61774.03;4994018;28;20044;-71
2022/03/22 00:28:01;;;;;;;18.63;11.43;;;;;;;-139.48;100.00;61774.03;4994928;28;20500;-71
2022/03/22 00:30:45;;;;;;;19.38;11.73;;;;;;;-139.48;100.00;61774.03;4994818;28;20049;-70
2022/03/22 00:33:29;;;;;;;19.30;11.45;;;;;;;-139.48;100.00;61774.03;4994147;28;20083;-70
2022/03/22 00:36:13;;;;;;;21.92;11.35;;;;;;;-139.48;100.00;61774.03;4980116;28;20513;-71
2022/03/22 00:38:57;;;;;;;19.00;11.45;;;;;;;-139.48;100.00;61774.03;4979850;28;20464;-71
2022/03/22 00:41:41;;;;;;;20.38;11.40;;;;;;;-139.48;100.00;61774.03;4993448;28;20418;-70
2022/03/22 00:44:25;;;;;;;16.85;10.80;;;;;;;-139.48;100.00;61774.03;4994950;28;20457;-70
2022/03/22 00:47:09;;;;;;;18.95;11.00;;;;;;;-139.48;100.00;61774.03;4979944;28;20057;-70
2022/03/22 00:49:53;;;;;;;17.05;10.88;;;;;;;-139.48;100.00;61774.03;4979566;28;20049;-70
2022/03/22 00:52:37;;;;;;;23.33;11.07;;;;;;;-139.48;100.00;61774.03;4993328;28;20049;-70
2022/03/22 00:55:24;;;;;;;19.65;11.40;;;;;;;-139.48;100.00;61774.03;4994285;28;20049;-70
2022/03/22 00:58:07;;;;;;;20.25;11.50;;;;;;;-139.48;100.00;61774.03;4994144;28;20104;-70
2022/03/22 01:00:51;;;;;;;20.33;11.43;;;;;;;-139.48;100.00;61774.03;4993024;28;20076;-70
2022/03/22 01:03:35;;;;;;;17.08;10.32;;;;;;;-139.48;100.00;61774.03;4993490;28;20429;-70
2022/03/22 01:06:19;;;;;;;18.10;10.27;;;;;;;-139.48;100.00;61774.03;4994047;28;20105;-70
2022/03/22 01:09:03;;;;;;;19.73;10.40;;;;;;;-139.48;100.00;61774.03;4994334;28;20057;-70
2022/03/22 01:11:47;;;;;;;20.77;11.40;;;;;;;-139.48;100.00;61774.03;4992928;28;20073;-70
2022/03/22 01:14:31;;;;;;;24.27;11.70;;;;;;;-139.48;100.00;61774.03;4992994;28;20089;-70
2022/03/22 01:17:15;;;;;;;18.50;10.68;;;;;;;-139.48;100.00;61774.03;4994486;28;20092;-70
2022/03/22 01:20:00;;;;;;;17.90;10.63;;;;;;;-139.48;100.00;61774.03;4979232;28;20181;-70
2022/03/22 01:22:45;;;;;;;19.05;10.75;;;;;;;-139.48;100.00;61774.03;4979193;28;20057;-70
2022/03/22 01:25:30;;;;;;;19.75;11.35;;;;;;;-139.48;100.00;61774.03;4994155;28;20069;-70
2022/03/22 01:28:14;;;;;;;21.23;11.77;;;;;;;-139.48;100.00;61774.03;4993405;28;20058;-71
2022/03/22 01:30:58;;;;;;;18.83;11.05;;;;;;;-139.48;100.00;61774.03;4992785;28;20230;-70
2022/03/22 01:33:42;;;;;;;23.33;11.43;;;;;;;-139.48;100.00;61774.03;4992815;28;20101;-70
2022/03/22 01:36:31;;;;;;;16.98;11.27;;;;;;;-139.48;100.00;61774.03;4993078;28;20122;-70
2022/03/22 01:39:15;;;;;;;22.90;12.45;;;;;;;-139.48;100.00;61774.03;4993939;28;20052;-70
2022/03/22 01:41:59;;;;;;;22.30;11.23;;;;;;;-139.48;100.00;61774.03;4979170;28;20101;-71
2022/03/22 01:44:43;;;;;;;18.73;11.15;;;;;;;-139.48;100.00;61774.03;4993986;28;20097;-70
2022/03/22 01:47:28;;;;;;;17.73;11.07;;;;;;;-139.48;100.00;61774.03;4993965;28;20057;-70
2022/03/22 01:50:14;;;;;;;18.38;11.30;;;;;;;-139.48;100.00;61774.03;4993984;28;20080;-70
2022/03/22 01:52:59;;;;;;;18.48;11.85;;;;;;;-139.48;100.00;61774.03;4993903;28;20101;-70
2022/03/22 01:55:43;;;;;;;18.15;10.70;;;;;;;-139.48;100.00;61774.03;4979241;28;20534;-70
2022/03/22 01:58:27;;;;;;;;;;;;;;;-139.48;100.00;61774.03;4993999;28;20057;-70
2022/03/22 02:07:17;;;;;;;19.42;11.98;;;;;;;-139.48;100.00;61774.03;4992975;28;20138;-70
2022/03/22 02:10:02;;;;;;;17.38;11.25;;;;;;;-139.48;100.00;61774.03;4992443;28;20097;-70
2022/03/22 02:12:46;;;;;;;18.15;11.57;;;;;;;-139.48;100.00;61774.03;4992490;28;20568;-70
2022/03/22 02:15:31;;;;;;;17.88;11.38;;;;;;;-139.48;100.00;61774.03;4993393;28;20057;-71
2022/03/22 02:18:16;;;;;;;19.85;11.85;;;;;;;-139.48;100.00;61774.03;4992705;28;20054;-70
2022/03/22 02:21:00;;;;;;;19.17;11.68;;;;;;;-139.48;100.00;61774.03;4992280;28;20133;-70
2022/03/22 02:23:49;;;;;;;18.88;11.38;;;;;;;-139.48;100.00;61774.03;4979075;28;20057;-71
2022/03/22 02:26:33;;;;;;;20.20;11.70;;;;;;;-139.48;100.00;61774.03;4992558;28;20092;-71
2022/03/22 02:29:17;;;;;;;19.02;11.52;;;;;;;-139.48;100.00;61774.03;4992632;28;20545;-70
2022/03/22 02:32:03;;;;;;;15.73;10.07;;;;;;;-139.48;100.00;61774.03;4993579;28;20413;-70
2022/03/22 02:34:47;;;;;;;20.52;11.82;;;;;;;-139.48;100.00;61774.03;4993198;28;20053;-71
2022/03/22 02:37:31;;;;;;;20.45;11.25;;;;;;;-139.48;100.00;61774.03;4996757;28;20134;-70
2022/03/22 02:40:15;;;;;;;22.23;12.07;;;;;;;-139.48;100.00;61774.03;4995835;28;20045;-70
2022/03/22 02:43:00;;;;;;;17.80;12.10;;;;;;;-139.48;100.00;61774.03;4995754;28;20061;-71
2022/03/22 02:45:45;;;;;;;22.88;11.38;;;;;;;-139.48;100.00;61774.03;4982241;28;20053;-70
2022/03/22 02:48:28;;;;;;;19.20;11.25;;;;;;;-139.48;100.00;61774.03;4996565;28;20100;-70
2022/03/22 02:51:13;;;;;;;21.38;11.18;;;;;;;-139.48;100.00;61774.03;4996536;28;20054;-71
2022/03/22 02:53:57;;;;;;;21.17;11.30;;;;;;;-139.48;100.00;61774.03;4996727;28;20104;-70
2022/03/22 02:56:41;;;;;;;18.73;10.98;;;;;;;-139.48;100.00;61774.03;4996659;28;20092;-70
2022/03/22 02:59:25;;;;;;;19.23;11.07;;;;;;;-139.48;100.00;61774.03;4995317;28;20526;-71
2022/03/22 03:02:09;;;;;;;;;;;;;;;-139.48;100.00;61774.03;4995706;28;20109;-70
2022/03/22 03:04:53;;;;;;;21.92;11.43;;;;;;;-139.48;100.00;61774.03;4996541;28;19921;-70
2022/03/22 03:07:38;;;;;;;18.67;11.05;;;;;;;-139.48;100.00;61774.03;4982020;28;20057;-70
2022/03/22 03:10:22;;;;;;;19.42;11.18;;;;;;;-139.48;100.00;61774.03;4996261;28;20409;-70
2022/03/22 03:13:05;;;;;;;17.48;10.95;;;;;;;-139.48;100.00;61774.03;4996390;28;20512;-70
2022/03/22 03:15:52;;;;;;;19.48;10.68;;;;;;;-139.48;100.00;61774.03;4996331;28;20053;-70
2022/03/22 03:18:36;;;;;;;21.80;11.77;;;;;;;-139.48;100.00;61774.03;4995300;28;20058;-71
2022/03/22 03:21:20;;;;;;;19.02;10.95;;;;;;;-139.48;100.00;61774.03;4995780;28;20461;-70
2022/03/22 03:24:04;;;;;;;20.02;11.43;;;;;;;-139.48;100.00;61774.03;4996136;28;20105;-70
2022/03/22 03:26:48;;;;;;;22.73;11.27;;;;;;;-139.48;100.00;61774.03;4996013;28;20056;-70
2022/03/22 03:29:32;;;;;;;20.45;11.07;;;;;;;-139.48;100.00;61774.03;4995013;28;20100;-70
2022/03/22 03:32:16;;;;;;;19.77;11.65;;;;;;;-139.48;100.00;61774.03;4981309;28;20053;-70
2022/03/22 03:35:00;;;;;;;23.02;11.80;;;;;;;-139.48;100.00;61774.03;4994712;28;20069;-70
2022/03/22 03:37:44;;;;;;;20.48;11.02;;;;;;;-139.48;100.00;61774.03;4995940;28;20092;-71
2022/03/22 03:41:53;;;;;;;19.10;12.57;;;;;;;-139.48;100.00;61774.03;4994448;28;20113;-70
2022/03/22 03:43:32;;;;;;;19.90;12.27;;;;;;;-139.48;100.00;61774.03;4995754;28;20081;-70
2022/03/22 03:49:19;;;;;;;20.73;12.38;;;;;;;-139.48;100.00;61774.03;4994916;28;20475;-70
2022/03/22 03:52:04;;;;;;;19.75;11.65;;;;;;;-139.48;100.00;61774.03;4994663;28;20128;-71
2022/03/22 03:54:48;;;;;;;20.05;11.38;;;;;;;-139.48;100.00;61774.03;4995558;28;20053;-70
2022/03/22 03:57:40;;;;;;;19.70;11.90;;;;;;;-139.48;100.00;61774.03;4994524;28;20053;-70
2022/03/22 04:00:25;;;;;;;17.77;11.23;;;;;;;-139.48;100.00;61774.03;4994318;28;20041;-70
2022/03/22 04:03:09;;;;;;;24.42;12.10;;;;;;;-139.48;100.00;61774.03;4995386;28;20462;-70
2022/03/22 04:05:53;;;;;;;22.63;12.63;;;;;;;-139.48;100.00;61774.03;4980382;28;20061;-70
2022/03/22 04:08:36;;;;;;;19.67;11.55;;;;;;;-139.48;100.00;61774.03;4995036;28;20057;-70
2022/03/22 04:11:20;;;;;;;20.20;11.98;;;;;;;-139.48;100.00;61774.03;4994850;28;20531;-70
2022/03/22 04:14:04;;;;;;;19.08;11.95;;;;;;;-139.48;100.00;61774.03;4980531;28;20052;-70
2022/03/22 04:16:52;;;;;;;22.98;11.57;;;;;;;-139.48;100.00;61774.03;4994261;28;20122;-70
2022/03/22 04:19:36;;;;;;;20.50;11.50;;;;;;;-139.48;100.00;61774.03;4993919;28;20045;-71
2022/03/22 04:22:20;;;;;;;19.70;12.00;;;;;;;-139.48;100.00;61774.03;4995075;28;20128;-70
2022/03/22 04:25:11;;;;;;;21.98;12.35;;;;;;;-139.48;100.00;61774.03;4994351;28;20049;-71
2022/03/22 04:34:01;;;;;;;23.20;12.18;;;;;;;-139.48;100.00;61774.03;4994066;28;20053;-70
2022/03/22 04:36:52;;;;;;;18.40;11.93;;;;;;;-139.48;100.00;61774.03;4993809;28;20053;-70
2022/03/22 04:39:36;;;;;;;26.33;12.77;;;;;;;-139.48;100.00;61774.03;4993659;28;20088;-70
2022/03/22 04:42:19;;;;;;;20.83;12.45;;;;;;;-139.48;100.00;61774.03;4993745;28;20057;-70
2022/03/22 04:45:04;;;;;;;21.00;12.48;;;;;;;-139.48;100.00;61774.03;4993717;28;20053;-70
2022/03/22 04:47:49;;;;;;;21.92;11.63;;;;;;;-139.48;100.00;61774.03;4993617;28;20525;-70
2022/03/22 04:50:33;;;;;;;22.88;13.38;;;;;;;-139.48;100.00;61774.03;4993665;28;20096;-70
2022/03/22 04:59:24;;;;;;;22.60;12.95;;;;;;;-139.48;100.00;61774.03;4993208;28;20049;-70
2022/03/22 05:02:08;;;;;;;23.42;13.63;;;;;;;-139.48;100.00;61774.03;4994360;28;20093;-70
2022/03/22 05:04:52;;;;;;;23.92;13.15;;;;;;;-139.48;100.00;61774.03;4993380;28;20133;-70
2022/03/22 05:07:36;;;;;;;21.15;12.43;;;;;;;-139.48;100.00;61774.03;4994350;28;20053;-70
2022/03/22 05:10:20;;;;;;;22.05;13.07;;;;;;;-139.48;100.00;61774.03;4979316;28;20050;-70
2022/03/22 05:13:04;;;;;;;19.58;12.80;;;;;;;-139.48;100.00;61774.03;4979305;28;20056;-70
2022/03/22 05:15:48;;;;;;;21.80;13.45;;;;;;;-139.48;100.00;61774.03;4979534;28;20049;-70
2022/03/22 05:18:34;;;;;;;21.80;13.13;;;;;;;-139.48;100.00;61774.03;4993244;28;20556;-70
2022/03/22 05:21:19;;;;;;;21.98;12.82;;;;;;;-139.48;100.00;61774.03;4993751;28;20461;-70
2022/03/22 05:24:03;;;;;;;27.48;13.48;;;;;;;-139.48;100.00;61774.03;4993449;28;20104;-70
2022/03/22 05:26:47;;;;;;;26.17;14.55;;;;;;;-139.48;100.00;61774.03;4993149;28;20130;-70
2022/03/22 05:29:32;;;;;;;23.33;13.38;;;;;;;-139.48;100.00;61774.03;4993774;28;20061;-70
2022/03/22 05:32:15;;;;;;;25.45;14.80;;;;;;;-139.48;100.00;61774.03;4993842;28;20049;-70
2022/03/22 05:34:59;;;;;;;22.73;13.65;;;;;;;-139.48;100.00;61774.03;4994057;28;20103;-70
2022/03/22 05:37:43;;;;;;;25.17;14.10;;;;;;;-139.48;100.00;61774.03;4993067;28;20487;-69
2022/03/22 05:40:27;;;;;;;21.17;13.13;;;;;;;-139.48;100.00;61774.03;4992621;28;20093;-70
2022/03/22 05:43:12;;;;;;;22.80;13.50;;;;;;;-139.48;100.00;61774.03;4993998;28;20533;-70
2022/03/22 05:45:55;;;;;;;24.27;14.10;;;;;;;-139.48;100.00;61774.03;4979301;28;20089;-70
2022/03/22 05:48:39;;;;;;;26.30;13.95;;;;;;;-139.48;100.00;61774.03;4993070;28;20537;-70
2022/03/22 05:51:23;;;;;;;24.33;15.55;;;;;;;-139.48;100.00;61774.03;4992558;28;20201;-70
2022/03/22 05:54:07;;;;;;;24.55;15.35;;;;;;;-139.48;100.00;61774.03;4993918;28;20093;-70
2022/03/22 05:56:51;;;;;;;;;;;;;;;-139.48;100.00;61774.03;4979481;28;20125;-70
2022/03/22 05:59:35;;;;;;;28.17;18.23;;;;;;;-139.48;100.00;61774.03;4992764;28;19921;-70
2022/03/22 06:02:19;;;;;;;36.95;18.90;;;;;;;-139.48;100.00;61774.03;4993090;28;20049;-70
2022/03/22 06:05:14;;;;;;;30.92;19.00;;;;;;;-139.48;100.00;61774.03;4992822;28;20557;-70
2022/03/22 06:07:59;;;;;;;32.15;18.05;;;;;;;-139.48;100.00;61774.03;4979809;28;20049;-70
2022/03/22 06:10:43;;;;;;;32.88;18.35;;;;;;;-139.48;100.00;61774.03;4997046;28;20058;-70
2022/03/22 06:13:27;;;;;;;30.13;18.42;;;;;;;-139.48;100.00;61774.03;4982769;28;20065;-70
2022/03/22 06:16:11;;;;;;;;;;;;;;;-139.48;100.00;61774.03;4996624;28;20052;-70
2022/03/22 06:18:55;;;;;;;20.10;12.23;;;;;;;-139.48;100.00;61774.03;4996440;28;19920;-70
2022/03/22 06:21:38;;;;;;;;;;;;;;;-139.48;100.00;61774.03;4996659;28;20064;-70
2022/03/22 06:24:22;;;;;;;26.25;15.60;;;;;;;-139.48;100.00;61774.03;4996174;28;19925;-70
2022/03/22 06:27:06;;;;;;;25.40;14.75;;;;;;;-139.48;100.00;61774.03;4996021;28;20097;-70
2022/03/22 06:29:51;;;;;;;27.27;14.30;;;;;;;-139.48;100.00;61774.03;4997064;28;20061;-70
2022/03/22 06:32:51;;;;;;;;;;;;;;;-139.48;100.00;61774.03;4996753;28;20061;-70
2022/03/22 06:35:35;;;;;;;24.13;13.60;;;;;;;-139.48;100.00;61774.03;4982267;28;19964;-70
2022/03/22 06:38:19;;;;;;;25.13;14.50;;;;;;;-139.48;100.00;61774.03;4996737;28;20442;-70
2022/03/22 06:41:03;;;;;;;33.55;17.67;;;;;;;-139.48;100.00;61774.03;4995887;28;20093;-70
2022/03/22 06:43:47;;;;;;;28.00;14.75;;;;;;;-139.48;100.00;61774.03;4996641;28;20422;-70
2022/03/22 06:46:32;;;;;;;27.27;15.57;;;;;;;-139.48;100.00;61774.03;4996866;28;20464;-71
2022/03/22 06:49:16;;;;;;;23.65;14.48;;;;;;;-139.48;100.00;61774.03;4996706;28;20044;-70
2022/03/22 06:52:00;;;;;;;28.10;15.57;;;;;;;-139.48;100.00;61774.03;4996805;28;20158;-70
2022/03/22 06:54:44;;;;;;;26.75;14.48;;;;;;;-139.48;100.00;61774.03;4995494;28;20061;-70
2022/03/22 06:57:28;;;;;;;21.52;13.15;;;;;;;-139.48;100.00;61774.03;4995661;28;20053;-70
2022/03/22 07:00:15;;;;;;;26.00;14.50;;;;;;;-139.48;100.00;61774.03;4981526;28;20064;-70
2022/03/22 07:03:03;;;;;;;22.45;12.85;;;;;;;-139.48;100.00;61774.03;4995321;28;20056;-70
2022/03/22 07:05:47;;;;;;;23.90;13.95;;;;;;;-139.48;100.00;61774.03;4995473;28;20049;-70
2022/03/22 07:08:31;;;;;;;24.40;13.60;;;;;;;-139.48;100.00;61774.03;4995243;28;20449;-70
2022/03/22 07:14:23;;;;;;;21.10;13.88;;;;;;;-139.48;100.00;61774.03;4995410;28;20052;-70
2022/03/22 07:17:08;;;;;;;29.50;16.20;;;;;;;-139.48;100.00;61774.03;4995359;28;20053;-70
2022/03/22 07:19:53;;;;;;;24.48;15.18;;;;;;;-139.48;100.00;61774.03;4994960;28;20500;-70
2022/03/22 07:22:37;;;;;;;22.52;14.63;;;;;;;-139.48;100.00;61774.03;4994786;28;20053;-71
2022/03/22 07:25:22;;;;;;;22.80;13.88;;;;;;;-139.48;100.00;61774.03;4996457;28;20049;-71
2022/03/22 07:28:06;;;;;;;24.73;14.05;;;;;;;-139.48;100.00;61774.03;4995150;28;20045;-70
2022/03/22 07:30:50;;;;;;;24.60;14.88;;;;;;;-139.48;100.00;61774.03;4995878;28;20049;-70
2022/03/22 07:33:37;;;;;;;31.83;15.75;;;;;;;-139.48;100.00;61774.03;4995728;28;20064;-69
2022/03/22 07:36:22;;;;;;;37.72;22.17;;;;;;;-139.48;100.00;61774.03;4995020;28;20108;-70
2022/03/22 07:39:07;;;;;;;28.38;15.13;;;;;;;-139.48;100.00;61774.03;4994943;28;20048;-71
2022/03/22 07:41:51;;;;;;;20.45;13.60;;;;;;;-139.48;100.00;61774.03;4994526;28;20123;-70
2022/03/22 07:44:34;;;;;;;26.50;13.82;;;;;;;-139.48;100.00;61774.03;4994897;28;20105;-70
2022/03/22 07:47:18;;;;;;;24.15;13.38;;;;;;;-139.48;100.00;61774.03;4994803;28;20048;-70
2022/03/22 07:53:06;;;;;;;26.03;13.83;;;;;;;-139.48;100.00;61774.03;4995374;28;20181;-70
2022/03/22 07:55:50;;;;;;;26.27;14.68;;;;;;;-139.48;100.00;61774.03;4980819;28;20069;-70
2022/03/22 07:58:34;;;;;;;32.70;19.58;;;;;;;-139.48;100.00;61774.03;4995268;28;20084;-70
2022/03/22 08:01:18;;;;;;;25.52;15.07;;;;;;;-139.48;100.00;61774.03;4994123;28;20104;-70
2022/03/22 08:04:02;;;;;;;24.00;15.13;;;;;;;-139.48;100.00;61774.03;4995180;28;20191;-70
2022/03/22 08:06:45;;;;;;;24.58;13.75;;;;;;;-139.48;100.00;61774.03;4994402;28;20176;-69
2022/03/22 08:09:29;;;;;;;22.48;14.73;;;;;;;-139.48;100.00;61774.03;4980486;28;20378;-70
2022/03/22 08:12:13;;;;;;;25.25;14.65;;;;;;;-139.48;100.00;61774.03;4994352;28;20104;-70
2022/03/22 08:14:57;;;;;;;39.20;23.00;;;;;;;-139.48;100.00;61774.03;4994020;28;20108;-71
2022/03/22 08:17:42;;;;;;;27.60;15.73;;;;;;;-139.48;100.00;61774.03;4994203;28;20053;-71
2022/03/22 08:20:27;;;;;;;23.20;13.75;;;;;;;-139.48;100.00;61774.03;4993887;28;20085;-71
2022/03/22 08:23:12;;;;;;;25.45;13.70;;;;;;;-139.48;100.00;61774.03;4993797;28;20104;-71
2022/03/22 08:25:55;;;;;;;24.38;13.45;;;;;;;-139.48;100.00;61774.03;4994772;28;20181;-71
2022/03/22 08:28:40;;;;;;;25.58;13.85;;;;;;;-139.48;100.00;61774.03;4994036;28;20048;-71
2022/03/22 08:31:24;;;;;;;33.65;20.33;;;;;;;-139.48;100.00;61774.03;4994817;28;20045;-71
2022/03/22 08:34:08;;;;;;;32.05;18.35;;;;;;;-139.48;100.00;61774.03;4993662;28;20081;-71
2022/03/22 08:36:54;;;;;;;24.23;14.80;;;;;;;-139.48;100.00;61774.03;4993822;28;20101;-70
2022/03/22 08:39:38;;;;;;;28.17;14.52;;;;;;;-139.48;100.00;61774.03;4994573;28;20061;-71
2022/03/22 08:42:22;;;;;;;23.88;14.70;;;;;;;-139.48;100.00;61774.03;4979970;28;20060;-71
2022/03/22 08:45:06;;;;;;;25.13;14.25;;;;;;;-139.48;100.00;61774.03;4993477;28;20100;-70
2022/03/22 08:47:51;;;;;;;48.22;25.63;;;;;;;-139.48;100.00;61774.03;4993661;28;20053;-71
2022/03/22 08:50:43;;;;;;;25.02;15.10;;;;;;;-139.48;100.00;61774.03;4993293;28;20061;-71
2022/03/22 08:53:27;;;;;;;29.30;17.80;;;;;;;-139.48;100.00;61774.03;4993853;28;20080;-71
2022/03/22 08:56:13;;;;;;;24.23;14.00;;;;;;;-139.48;100.00;61774.03;4994540;28;20097;-71
2022/03/22 08:58:57;;;;;;;25.85;15.32;;;;;;;-139.48;100.00;61774.03;4993443;28;20076;-71
2022/03/22 09:01:41;;;;;;;25.58;15.18;;;;;;;-139.48;100.00;61774.03;4993101;28;20049;-71
2022/03/22 09:07:29;;;;;;;26.02;16.67;;;;;;;-139.48;100.00;61774.03;4994298;28;20060;-70
2022/03/22 09:10:14;;;;;;;29.38;15.00;;;;;;;-139.48;100.00;61774.03;4995185;28;20045;-71
2022/03/22 09:12:58;;;;;;;26.33;15.60;;;;;;;-139.48;100.00;61774.03;4993007;28;20048;-71
2022/03/22 09:15:44;;;;;;;26.63;15.65;;;;;;;-139.48;100.00;61774.03;4993250;28;20069;-71
2022/03/22 09:18:28;;;;;;;29.27;16.27;;;;;;;-139.48;100.00;61774.03;4979618;28;20585;-71
2022/03/22 09:21:12;;;;;;;31.70;16.88;;;;;;;-139.48;100.00;61774.03;4992873;28;20142;-71
2022/03/22 09:23:56;;;;;;;;;;;;;;;-139.48;100.00;61774.03;4993396;28;20506;-70
2022/03/22 09:26:39;;;;;;;27.08;16.35;;;;;;;-139.48;100.00;61774.03;4993288;28;19948;-71
2022/03/22 09:29:23;;;;;;;26.42;15.27;;;;;;;-139.48;100.00;61774.03;4993845;28;20101;-71
2022/03/22 09:32:08;;;;;;;23.63;14.77;;;;;;;-139.48;100.00;61774.03;4993438;28;20038;-70
2022/03/22 09:34:52;;;;;;;27.35;15.40;;;;;;;-139.48;100.00;61774.03;4994145;28;20145;-71
2022/03/22 09:37:41;;;;;;;22.17;14.63;;;;;;;-139.48;100.00;61774.03;4993150;28;20041;-71
2022/03/22 09:40:27;;;;;;;59.67;34.97;;;;;;;-139.48;100.00;61774.03;4979285;28;20081;-71
2022/03/22 09:43:11;;;;;;;28.30;16.35;;;;;;;-139.48;100.00;61774.03;4992766;28;20080;-71
2022/03/22 09:45:55;;;;;;;29.40;15.88;;;;;;;-139.48;100.00;61774.03;4997001;28;20104;-71
2022/03/22 09:48:39;;;;;;;24.52;15.93;;;;;;;-139.48;100.00;61774.03;4996709;28;20414;-71
2022/03/22 09:54:26;;;;;;;23.25;16.23;;;;;;;-139.48;100.00;61774.03;4997867;28;20590;-69
2022/03/22 09:57:10;;;;;;;24.73;19.27;;;;;;;-139.48;100.00;61774.03;4996622;28;20556;-69
2022/03/22 09:59:54;;;;;;;;;;;;;;;-139.48;100.00;61774.03;4997994;28;20049;-69
2022/03/22 10:02:38;;;;;;;28.92;17.02;;;;;;;-139.48;100.00;61774.03;4996431;28;20392;-69
2022/03/22 10:05:23;;;;;;;22.83;17.70;;;;;;;-139.48;100.00;61774.03;4996639;28;20065;-69
2022/03/22 10:08:08;;;;;;;31.38;22.20;;;;;;;-139.48;100.00;61774.03;4996602;28;20048;-69
2022/03/22 10:10:54;;;;;;;25.52;19.75;;;;;;;-139.48;100.00;61774.03;4996356;28;20093;-69
2022/03/22 10:13:55;;;;;;;25.20;18.52;;;;;;;-139.48;100.00;61774.03;4982708;28;20108;-69
2022/03/22 10:16:50;;;;;;;24.42;18.80;;;;;;;-139.48;100.00;61774.03;4997518;28;20514;-69
2022/03/22 10:19:41;;;;;;;24.90;18.35;;;;;;;-139.48;100.00;61774.03;4996212;28;20120;-69
2022/03/22 10:22:26;;;;;;;29.15;23.42;;;;;;;-139.48;100.00;61774.03;4996996;28;20086;-68
2022/03/22 10:25:10;;;;;;;24.27;19.38;;;;;;;-139.48;100.00;61774.03;4996268;28;20053;-69
2022/03/22 10:27:55;;;;;;;23.98;18.70;;;;;;;-139.48;100.00;61774.03;4995872;28;20560;-69
2022/03/22 10:30:40;;;;;;;30.25;21.73;;;;;;;-139.48;100.00;61774.03;4995959;28;20045;-69
2022/03/22 10:33:24;;;;;;;23.02;18.55;;;;;;;-139.48;100.00;61774.03;4982636;28;20045;-69
2022/03/22 10:36:14;;;;;;;24.92;18.50;;;;;;;-139.48;100.00;61774.03;4996770;28;20129;-69
2022/03/22 10:38:59;;;;;;;23.77;18.80;;;;;;;-139.48;100.00;61774.03;4983016;28;20129;-69
2022/03/22 10:41:45;;;;;;;24.77;18.73;;;;;;;-139.48;100.00;61774.03;4996605;28;20509;-70
2022/03/22 10:44:37;;;;;;;23.40;18.17;;;;;;;-139.48;100.00;61774.03;4995888;28;20129;-69
2022/03/22 10:47:25;;;;;;;24.05;19.38;;;;;;;-139.48;100.00;61774.03;4995958;28;20509;-70
2022/03/22 10:50:10;;;;;;;21.25;18.60;;;;;;;-139.48;100.00;61774.03;4996663;28;20045;-69
2022/03/22 10:52:57;;;;;;;25.70;19.92;;;;;;;-139.48;100.00;61774.03;4996721;28;20053;-69
2022/03/22 10:55:42;;;;;;;25.13;20.08;;;;;;;-139.48;100.00;61774.03;4980739;28;20085;-69
2022/03/22 10:58:27;;;;;;;26.42;19.67;;;;;;;-139.48;100.00;61774.03;4995732;28;20049;-69
2022/03/22 11:01:15;;;;;;;22.98;18.83;;;;;;;-139.48;100.00;61774.03;4995322;28;20084;-69
2022/03/22 11:03:59;;;;;;;25.48;20.02;;;;;;;-139.48;100.00;61774.03;4982616;28;20057;-69
2022/03/22 11:06:47;;;;;;;27.50;19.08;;;;;;;-139.48;100.00;61774.03;4981751;28;20096;-69
2022/03/22 11:09:31;;;;;;;26.35;19.10;;;;;;;-139.48;100.00;61774.03;4995452;28;20108;-69
2022/03/22 11:12:18;;;;;;;23.92;19.50;;;;;;;-139.48;100.00;61774.03;4995361;28;20101;-69
2022/03/22 11:15:05;;;;;;;21.00;18.10;;;;;;;-139.48;100.00;61774.03;4981724;28;20071;-70
2022/03/22 11:17:51;;;;;;;25.02;18.63;;;;;;;-139.48;100.00;61774.03;4995623;28;20447;-70
2022/03/22 11:20:35;;;;;;;27.42;19.45;;;;;;;-139.48;100.00;61774.03;4994965;28;20045;-69
2022/03/22 11:23:21;;;;;;;22.17;18.27;;;;;;;-139.48;100.00;61774.03;4981601;28;20408;-69
2022/03/22 11:26:08;;;;;;;24.33;18.48;;;;;;;-139.48;100.00;61774.03;4994944;28;20093;-70
2022/03/22 11:28:52;;;;;;;20.98;18.77;;;;;;;-139.48;100.00;61774.03;4995847;28;20549;-69
2022/03/22 11:31:36;;;;;;;19.13;17.13;;;;;;;-139.48;100.00;61774.03;4994811;28;20510;-70
2022/03/22 11:34:20;;;;;;;21.92;19.63;;;;;;;-139.48;100.00;61774.03;4995063;28;20466;-70
2022/03/22 11:37:04;;;;;;;24.20;19.08;;;;;;;-139.48;100.00;61774.03;4995117;28;20406;-70
2022/03/22 11:42:57;;;;;;;21.85;19.55;;;;;;;-139.48;100.00;61774.03;4995628;28;20049;-70
2022/03/22 11:45:51;;;;;;;19.77;17.70;;;;;;;-139.48;100.00;61774.03;4994854;28;20065;-70
2022/03/22 11:48:38;;;;;;;22.63;18.23;;;;;;;-139.48;100.00;61774.03;4981058;28;20177;-70
2022/03/22 11:51:23;;;;;;;21.45;18.45;;;;;;;-139.48;100.00;61774.03;4994713;28;20057;-70
2022/03/22 11:54:07;;;;;;;24.23;19.75;;;;;;;-139.48;100.00;61774.03;4994703;28;20141;-70
2022/03/22 11:56:55;;;;;;;25.83;19.27;;;;;;;-139.48;100.00;61774.03;4994808;28;20057;-71
2022/03/22 11:59:43;;;;;;;24.08;18.48;;;;;;;-139.48;100.00;61774.03;4995177;28;20107;-70
2022/03/22 12:02:30;;;;;;;22.60;19.08;;;;;;;-139.48;100.00;61774.03;4995579;28;20137;-70
2022/03/22 12:05:17;;;;;;;23.25;17.08;;;;;;;-139.48;100.00;61774.03;4994205;28;20077;-70
2022/03/22 12:08:08;;;;;;;24.85;18.55;;;;;;;-139.48;100.00;61774.03;4994804;28;20418;-70
2022/03/22 12:10:54;;;;;;;21.88;17.17;;;;;;;-139.48;100.00;61774.03;4994866;28;20097;-70
2022/03/22 12:13:48;;;;;;;22.77;18.77;;;;;;;-139.48;100.00;61774.03;4995504;28;20060;-70
2022/03/22 12:16:32;;;;;;;21.10;18.15;;;;;;;-139.48;100.00;61774.03;4994275;28;20120;-70
2022/03/22 12:19:24;;;;;;;25.23;19.02;;;;;;;-139.48;100.00;61774.03;4994905;28;20441;-69
2022/03/22 12:22:08;;;;;;;20.23;18.15;;;;;;;-139.48;100.00;61774.03;4993856;28;20050;-70
2022/03/22 12:24:52;;;;;;;21.92;17.70;;;;;;;-139.48;100.00;61774.03;4980644;28;20091;-70
2022/03/22 12:27:36;;;;;;;22.63;17.17;;;;;;;-139.48;100.00;61774.03;4994035;28;20056;-70
2022/03/22 12:30:22;;;;;;;20.25;16.25;;;;;;;-139.48;100.00;61774.03;4994659;28;20097;-70
2022/03/22 12:33:13;;;;;;;22.40;17.70;;;;;;;-139.48;100.00;61774.03;4993661;28;20088;-70
2022/03/22 12:35:57;;;;;;;21.40;15.80;;;;;;;-139.48;100.00;61774.03;4993863;28;20593;-70
2022/03/22 12:38:41;;;;;;;19.15;13.98;;;;;;;-139.48;100.00;61774.03;4994514;28;20056;-70
2022/03/22 12:41:25;;;;;;;20.88;14.45;;;;;;;-139.48;100.00;61774.03;4994315;28;20115;-69
2022/03/22 12:44:09;;;;;;;17.40;12.90;;;;;;;-139.48;100.00;61774.03;4980068;28;20085;-70
2022/03/22 12:46:53;;;;;;;15.77;12.90;;;;;;;-139.48;100.00;61774.03;4979843;28;20097;-69
2022/03/22 12:49:42;;;;;;;23.88;12.32;;;;;;;-139.48;100.00;61774.03;4993268;28;20064;-69
2022/03/22 12:52:28;;;;;;;41.15;14.45;;;;;;;-139.48;100.00;61774.03;4993647;28;20108;-70